sensor_id;sensor_type;location;lat;lon;timestamp;P1;durP1;ratioP1;P2;durP2;ratioP2
37647;SDS011;23490;53.656;10.076;2023-06-14T00:00:03;5.85;;;2.10;;
37647;SDS011;23490;53.656;10.076;2023-06-14T00:02:29;7.15;;;2.30;;
37647;SDS011;23490;53.656;10.076;2023-06-14T00:04:54;7.00;;;2.33;;
37647;SDS011;23490;53.656;10.076;2023-06-14T00:07:21;5.43;;;2.03;;
37647;SDS011;23490;53.656;10.076;2023-06-14T00:09:59;5.75;;;2.55;;
37647;SDS011;23490;53.656;10.076;2023-06-14T00:12:24;5.60;;;2.38;;
37647;SDS011;23490;53.656;10.076;2023-06-14T00:14:50;5.70;;;2.55;;
37647;SDS011;23490;53.656;10.076;2023-06-14T00:17:15;7.13;;;2.50;;
37647;SDS011;23490;53.656;10.076;2023-06-14T00:19:42;3.55;;;1.95;;
37647;SDS011;23490;53.656;10.076;2023-06-14T00:22:07;5.72;;;2.03;;
37647;SDS011;23490;53.656;10.076;2023-06-14T00:24:32;8.75;;;2.33;;
37647;SDS011;23490;53.656;10.076;2023-06-14T00:26:57;4.70;;;2.10;;
37647;SDS011;23490;53.656;10.076;2023-06-14T00:29:23;5.45;;;2.10;;
37647;SDS011;23490;53.656;10.076;2023-06-14T00:31:48;4.15;;;2.20;;
37647;SDS011;23490;53.656;10.076;2023-06-14T00:34:13;6.22;;;2.72;;
37647;SDS011;23490;53.656;10.076;2023-06-14T00:36:39;5.00;;;2.25;;
37647;SDS011;23490;53.656;10.076;2023-06-14T00:39:04;4.50;;;2.00;;
37647;SDS011;23490;53.656;10.076;2023-06-14T00:41:30;7.38;;;2.30;;
37647;SDS011;23490;53.656;10.076;2023-06-14T00:43:55;4.93;;;2.20;;
37647;SDS011;23490;53.656;10.076;2023-06-14T00:46:21;8.73;;;3.00;;
37647;SDS011;23490;53.656;10.076;2023-06-14T00:48:47;5.05;;;2.30;;
37647;SDS011;23490;53.656;10.076;2023-06-14T00:51:13;5.68;;;2.65;;
37647;SDS011;23490;53.656;10.076;2023-06-14T00:53:39;6.70;;;2.28;;
37647;SDS011;23490;53.656;10.076;2023-06-14T00:56:06;6.85;;;2.28;;
37647;SDS011;23490;53.656;10.076;2023-06-14T00:58:32;4.93;;;2.10;;
37647;SDS011;23490;53.656;10.076;2023-06-14T01:00:57;4.22;;;2.42;;
37647;SDS011;23490;53.656;10.076;2023-06-14T01:03:23;3.90;;;2.10;;
37647;SDS011;23490;53.656;10.076;2023-06-14T01:05:53;4.55;;;1.98;;
37647;SDS011;23490;53.656;10.076;2023-06-14T01:08:37;6.28;;;2.22;;
37647;SDS011;23490;53.656;10.076;2023-06-14T01:11:31;4.50;;;2.50;;
37647;SDS011;23490;53.656;10.076;2023-06-14T01:13:58;5.13;;;2.10;;
37647;SDS011;23490;53.656;10.076;2023-06-14T01:16:26;6.78;;;2.45;;
37647;SDS011;23490;53.656;10.076;2023-06-14T01:18:53;7.32;;;2.63;;
37647;SDS011;23490;53.656;10.076;2023-06-14T01:21:24;5.70;;;2.20;;
37647;SDS011;23490;53.656;10.076;2023-06-14T01:23:51;5.40;;;2.30;;
37647;SDS011;23490;53.656;10.076;2023-06-14T01:26:21;3.80;;;2.05;;
37647;SDS011;23490;53.656;10.076;2023-06-14T01:28:50;4.75;;;2.03;;
37647;SDS011;23490;53.656;10.076;2023-06-14T01:31:21;9.07;;;2.63;;
37647;SDS011;23490;53.656;10.076;2023-06-14T01:33:47;8.95;;;2.80;;
37647;SDS011;23490;53.656;10.076;2023-06-14T01:36:14;5.75;;;2.15;;
37647;SDS011;23490;53.656;10.076;2023-06-14T01:38:41;5.90;;;2.38;;
37647;SDS011;23490;53.656;10.076;2023-06-14T01:41:08;5.68;;;2.15;;
37647;SDS011;23490;53.656;10.076;2023-06-14T01:43:35;5.72;;;2.50;;
37647;SDS011;23490;53.656;10.076;2023-06-14T01:46:00;5.72;;;2.50;;
37647;SDS011;23490;53.656;10.076;2023-06-14T01:48:28;4.38;;;2.67;;
37647;SDS011;23490;53.656;10.076;2023-06-14T01:50:53;4.18;;;2.55;;
37647;SDS011;23490;53.656;10.076;2023-06-14T01:53:18;6.95;;;2.45;;
37647;SDS011;23490;53.656;10.076;2023-06-14T01:55:44;5.07;;;2.33;;
37647;SDS011;23490;53.656;10.076;2023-06-14T01:58:09;7.15;;;2.60;;
37647;SDS011;23490;53.656;10.076;2023-06-14T02:00:35;7.22;;;2.53;;
37647;SDS011;23490;53.656;10.076;2023-06-14T02:03:01;5.60;;;2.75;;
37647;SDS011;23490;53.656;10.076;2023-06-14T02:05:29;5.20;;;3.03;;
37647;SDS011;23490;53.656;10.076;2023-06-14T02:07:55;5.50;;;2.60;;
37647;SDS011;23490;53.656;10.076;2023-06-14T02:10:20;4.65;;;2.53;;
37647;SDS011;23490;53.656;10.076;2023-06-14T02:12:46;5.47;;;2.50;;
37647;SDS011;23490;53.656;10.076;2023-06-14T02:15:11;5.95;;;2.80;;
37647;SDS011;23490;53.656;10.076;2023-06-14T02:22:37;6.82;;;2.90;;
37647;SDS011;23490;53.656;10.076;2023-06-14T02:25:03;6.00;;;2.67;;
37647;SDS011;23490;53.656;10.076;2023-06-14T02:27:28;7.25;;;2.60;;
37647;SDS011;23490;53.656;10.076;2023-06-14T02:29:54;7.10;;;3.25;;
37647;SDS011;23490;53.656;10.076;2023-06-14T02:32:19;4.53;;;2.80;;
37647;SDS011;23490;53.656;10.076;2023-06-14T02:34:45;7.43;;;3.35;;
37647;SDS011;23490;53.656;10.076;2023-06-14T02:37:14;5.97;;;2.37;;
37647;SDS011;23490;53.656;10.076;2023-06-14T02:39:39;6.15;;;3.15;;
37647;SDS011;23490;53.656;10.076;2023-06-14T02:42:05;6.57;;;3.03;;
37647;SDS011;23490;53.656;10.076;2023-06-14T02:44:31;7.75;;;3.38;;
37647;SDS011;23490;53.656;10.076;2023-06-14T02:46:57;5.25;;;2.97;;
37647;SDS011;23490;53.656;10.076;2023-06-14T02:49:23;5.70;;;2.70;;
37647;SDS011;23490;53.656;10.076;2023-06-14T02:51:49;7.82;;;3.05;;
37647;SDS011;23490;53.656;10.076;2023-06-14T02:54:14;4.70;;;2.72;;
37647;SDS011;23490;53.656;10.076;2023-06-14T02:56:40;9.52;;;2.90;;
37647;SDS011;23490;53.656;10.076;2023-06-14T02:59:05;5.97;;;2.53;;
37647;SDS011;23490;53.656;10.076;2023-06-14T03:01:32;4.18;;;2.55;;
37647;SDS011;23490;53.656;10.076;2023-06-14T03:04:01;5.60;;;3.08;;
37647;SDS011;23490;53.656;10.076;2023-06-14T03:06:28;6.63;;;2.85;;
37647;SDS011;23490;53.656;10.076;2023-06-14T03:08:55;6.65;;;2.83;;
37647;SDS011;23490;53.656;10.076;2023-06-14T03:11:24;7.28;;;2.95;;
37647;SDS011;23490;53.656;10.076;2023-06-14T03:13:50;6.57;;;3.30;;
37647;SDS011;23490;53.656;10.076;2023-06-14T03:16:16;4.95;;;2.80;;
37647;SDS011;23490;53.656;10.076;2023-06-14T03:18:44;7.22;;;3.42;;
37647;SDS011;23490;53.656;10.076;2023-06-14T03:21:10;6.65;;;3.25;;
37647;SDS011;23490;53.656;10.076;2023-06-14T03:23:35;7.07;;;3.08;;
37647;SDS011;23490;53.656;10.076;2023-06-14T03:26:01;7.47;;;3.63;;
37647;SDS011;23490;53.656;10.076;2023-06-14T03:28:26;7.07;;;3.08;;
37647;SDS011;23490;53.656;10.076;2023-06-14T03:30:52;7.10;;;3.38;;
37647;SDS011;23490;53.656;10.076;2023-06-14T03:33:17;5.82;;;3.15;;
37647;SDS011;23490;53.656;10.076;2023-06-14T03:35:43;7.30;;;3.00;;
37647;SDS011;23490;53.656;10.076;2023-06-14T03:38:08;5.20;;;3.20;;
37647;SDS011;23490;53.656;10.076;2023-06-14T03:40:33;6.10;;;3.30;;
37647;SDS011;23490;53.656;10.076;2023-06-14T03:42:59;5.75;;;3.00;;
37647;SDS011;23490;53.656;10.076;2023-06-14T03:45:25;6.63;;;3.13;;
37647;SDS011;23490;53.656;10.076;2023-06-14T03:47:50;8.65;;;3.15;;
37647;SDS011;23490;53.656;10.076;2023-06-14T03:50:17;6.13;;;2.90;;
37647;SDS011;23490;53.656;10.076;2023-06-14T03:52:43;8.00;;;3.20;;
37647;SDS011;23490;53.656;10.076;2023-06-14T03:55:09;6.88;;;2.88;;
37647;SDS011;23490;53.656;10.076;2023-06-14T03:57:35;6.05;;;2.75;;
37647;SDS011;23490;53.656;10.076;2023-06-14T04:00:00;7.07;;;2.95;;
37647;SDS011;23490;53.656;10.076;2023-06-14T04:02:26;4.85;;;2.90;;
37647;SDS011;23490;53.656;10.076;2023-06-14T04:04:54;7.15;;;3.63;;
37647;SDS011;23490;53.656;10.076;2023-06-14T04:07:19;5.85;;;2.80;;
37647;SDS011;23490;53.656;10.076;2023-06-14T04:09:45;6.32;;;2.75;;
37647;SDS011;23490;53.656;10.076;2023-06-14T04:12:11;7.07;;;2.70;;
37647;SDS011;23490;53.656;10.076;2023-06-14T04:14:37;6.65;;;3.28;;
37647;SDS011;23490;53.656;10.076;2023-06-14T04:17:03;5.72;;;2.88;;
37647;SDS011;23490;53.656;10.076;2023-06-14T04:19:28;7.72;;;3.00;;
37647;SDS011;23490;53.656;10.076;2023-06-14T04:21:54;8.85;;;3.13;;
37647;SDS011;23490;53.656;10.076;2023-06-14T04:24:19;6.50;;;3.17;;
37647;SDS011;23490;53.656;10.076;2023-06-14T04:26:45;7.10;;;2.78;;
37647;SDS011;23490;53.656;10.076;2023-06-14T04:29:12;6.50;;;2.83;;
37647;SDS011;23490;53.656;10.076;2023-06-14T04:31:42;6.30;;;3.20;;
37647;SDS011;23490;53.656;10.076;2023-06-14T04:34:09;7.78;;;2.72;;
37647;SDS011;23490;53.656;10.076;2023-06-14T04:36:40;5.13;;;2.63;;
37647;SDS011;23490;53.656;10.076;2023-06-14T04:39:12;5.93;;;2.92;;
37647;SDS011;23490;53.656;10.076;2023-06-14T04:41:38;8.93;;;3.50;;
37647;SDS011;23490;53.656;10.076;2023-06-14T04:44:03;7.28;;;3.00;;
37647;SDS011;23490;53.656;10.076;2023-06-14T04:46:29;5.05;;;2.78;;
37647;SDS011;23490;53.656;10.076;2023-06-14T04:48:55;6.35;;;2.70;;
37647;SDS011;23490;53.656;10.076;2023-06-14T04:51:21;9.93;;;3.38;;
37647;SDS011;23490;53.656;10.076;2023-06-14T04:53:54;6.25;;;2.67;;
37647;SDS011;23490;53.656;10.076;2023-06-14T04:56:23;8.00;;;3.33;;
37647;SDS011;23490;53.656;10.076;2023-06-14T04:58:51;9.05;;;3.28;;
37647;SDS011;23490;53.656;10.076;2023-06-14T05:01:18;7.22;;;2.75;;
37647;SDS011;23490;53.656;10.076;2023-06-14T05:03:44;6.13;;;2.97;;
37647;SDS011;23490;53.656;10.076;2023-06-14T05:06:10;6.68;;;3.10;;
37647;SDS011;23490;53.656;10.076;2023-06-14T05:08:37;7.15;;;3.05;;
37647;SDS011;23490;53.656;10.076;2023-06-14T05:11:02;7.00;;;2.97;;
37647;SDS011;23490;53.656;10.076;2023-06-14T05:13:27;6.85;;;3.22;;
37647;SDS011;23490;53.656;10.076;2023-06-14T05:15:53;6.57;;;3.35;;
37647;SDS011;23490;53.656;10.076;2023-06-14T05:18:18;5.22;;;2.80;;
37647;SDS011;23490;53.656;10.076;2023-06-14T05:20:44;5.15;;;2.65;;
37647;SDS011;23490;53.656;10.076;2023-06-14T05:23:11;6.10;;;2.95;;
37647;SDS011;23490;53.656;10.076;2023-06-14T05:25:40;7.20;;;2.78;;
37647;SDS011;23490;53.656;10.076;2023-06-14T05:28:07;8.43;;;3.45;;
37647;SDS011;23490;53.656;10.076;2023-06-14T05:30:32;7.05;;;3.10;;
37647;SDS011;23490;53.656;10.076;2023-06-14T05:32:58;8.23;;;3.03;;
37647;SDS011;23490;53.656;10.076;2023-06-14T05:35:23;8.00;;;3.28;;
37647;SDS011;23490;53.656;10.076;2023-06-14T05:37:51;8.25;;;3.28;;
37647;SDS011;23490;53.656;10.076;2023-06-14T05:40:17;5.60;;;2.72;;
37647;SDS011;23490;53.656;10.076;2023-06-14T05:42:43;7.95;;;2.95;;
37647;SDS011;23490;53.656;10.076;2023-06-14T05:45:08;7.43;;;2.53;;
37647;SDS011;23490;53.656;10.076;2023-06-14T05:47:34;6.25;;;2.80;;
37647;SDS011;23490;53.656;10.076;2023-06-14T05:49:59;11.48;;;3.67;;
37647;SDS011;23490;53.656;10.076;2023-06-14T05:52:25;6.13;;;2.70;;
37647;SDS011;23490;53.656;10.076;2023-06-14T05:54:50;7.22;;;3.45;;
37647;SDS011;23490;53.656;10.076;2023-06-14T05:57:15;6.85;;;2.67;;
37647;SDS011;23490;53.656;10.076;2023-06-14T05:59:41;5.40;;;3.05;;
37647;SDS011;23490;53.656;10.076;2023-06-14T06:02:06;9.85;;;3.72;;
37647;SDS011;23490;53.656;10.076;2023-06-14T06:04:31;10.07;;;3.15;;
37647;SDS011;23490;53.656;10.076;2023-06-14T06:06:57;8.63;;;3.40;;
37647;SDS011;23490;53.656;10.076;2023-06-14T06:09:22;6.85;;;2.55;;
37647;SDS011;23490;53.656;10.076;2023-06-14T06:11:48;4.95;;;2.42;;
37647;SDS011;23490;53.656;10.076;2023-06-14T06:14:13;7.10;;;3.30;;
37647;SDS011;23490;53.656;10.076;2023-06-14T06:16:38;4.68;;;2.42;;
37647;SDS011;23490;53.656;10.076;2023-06-14T06:19:04;5.30;;;2.60;;
37647;SDS011;23490;53.656;10.076;2023-06-14T06:21:29;6.05;;;2.80;;
37647;SDS011;23490;53.656;10.076;2023-06-14T06:23:55;6.18;;;2.90;;
37647;SDS011;23490;53.656;10.076;2023-06-14T06:26:21;5.65;;;2.92;;
37647;SDS011;23490;53.656;10.076;2023-06-14T06:28:47;5.35;;;2.80;;
37647;SDS011;23490;53.656;10.076;2023-06-14T06:31:13;7.75;;;2.75;;
37647;SDS011;23490;53.656;10.076;2023-06-14T06:33:38;5.85;;;2.50;;
37647;SDS011;23490;53.656;10.076;2023-06-14T06:36:04;5.63;;;2.17;;
37647;SDS011;23490;53.656;10.076;2023-06-14T06:38:30;3.03;;;1.90;;
37647;SDS011;23490;53.656;10.076;2023-06-14T06:40:55;5.85;;;2.47;;
37647;SDS011;23490;53.656;10.076;2023-06-14T06:43:21;5.38;;;2.13;;
37647;SDS011;23490;53.656;10.076;2023-06-14T06:45:47;5.07;;;2.15;;
37647;SDS011;23490;53.656;10.076;2023-06-14T06:48:12;5.43;;;2.10;;
37647;SDS011;23490;53.656;10.076;2023-06-14T06:50:38;5.10;;;2.35;;
37647;SDS011;23490;53.656;10.076;2023-06-14T06:53:03;4.65;;;2.35;;
37647;SDS011;23490;53.656;10.076;2023-06-14T06:55:28;3.80;;;2.08;;
37647;SDS011;23490;53.656;10.076;2023-06-14T06:57:54;6.25;;;2.05;;
37647;SDS011;23490;53.656;10.076;2023-06-14T07:00:20;5.03;;;2.10;;
37647;SDS011;23490;53.656;10.076;2023-06-14T07:02:46;5.63;;;2.00;;
37647;SDS011;23490;53.656;10.076;2023-06-14T07:05:12;4.05;;;1.95;;
37647;SDS011;23490;53.656;10.076;2023-06-14T07:07:37;5.78;;;1.90;;
37647;SDS011;23490;53.656;10.076;2023-06-14T07:10:03;5.47;;;2.15;;
37647;SDS011;23490;53.656;10.076;2023-06-14T07:12:33;4.22;;;1.63;;
37647;SDS011;23490;53.656;10.076;2023-06-14T07:15:01;3.17;;;1.90;;
37647;SDS011;23490;53.656;10.076;2023-06-14T07:17:26;5.18;;;1.98;;
37647;SDS011;23490;53.656;10.076;2023-06-14T07:19:51;5.75;;;2.10;;
37647;SDS011;23490;53.656;10.076;2023-06-14T07:22:18;4.97;;;2.05;;
37647;SDS011;23490;53.656;10.076;2023-06-14T07:24:43;3.60;;;1.65;;
37647;SDS011;23490;53.656;10.076;2023-06-14T07:27:09;5.28;;;1.85;;
37647;SDS011;23490;53.656;10.076;2023-06-14T07:29:35;3.50;;;1.90;;
37647;SDS011;23490;53.656;10.076;2023-06-14T07:32:00;4.22;;;1.92;;
37647;SDS011;23490;53.656;10.076;2023-06-14T07:34:25;6.38;;;1.92;;
37647;SDS011;23490;53.656;10.076;2023-06-14T07:36:51;2.35;;;1.60;;
37647;SDS011;23490;53.656;10.076;2023-06-14T07:39:16;3.97;;;1.90;;
37647;SDS011;23490;53.656;10.076;2023-06-14T07:41:42;3.08;;;1.77;;
37647;SDS011;23490;53.656;10.076;2023-06-14T07:44:07;4.55;;;2.03;;
37647;SDS011;23490;53.656;10.076;2023-06-14T07:46:32;4.50;;;1.88;;
37647;SDS011;23490;53.656;10.076;2023-06-14T07:48:59;4.20;;;2.10;;
37647;SDS011;23490;53.656;10.076;2023-06-14T07:51:24;6.05;;;2.00;;
37647;SDS011;23490;53.656;10.076;2023-06-14T07:53:50;4.10;;;2.08;;
37647;SDS011;23490;53.656;10.076;2023-06-14T07:56:15;4.85;;;2.22;;
37647;SDS011;23490;53.656;10.076;2023-06-14T07:58:40;5.18;;;2.40;;
37647;SDS011;23490;53.656;10.076;2023-06-14T08:01:06;4.53;;;1.80;;
37647;SDS011;23490;53.656;10.076;2023-06-14T08:03:33;3.42;;;1.55;;
37647;SDS011;23490;53.656;10.076;2023-06-14T08:05:58;4.50;;;1.75;;
37647;SDS011;23490;53.656;10.076;2023-06-14T08:08:23;4.35;;;1.92;;
37647;SDS011;23490;53.656;10.076;2023-06-14T08:10:49;5.15;;;2.38;;
37647;SDS011;23490;53.656;10.076;2023-06-14T08:13:15;3.13;;;1.50;;
37647;SDS011;23490;53.656;10.076;2023-06-14T08:15:40;3.05;;;1.85;;
37647;SDS011;23490;53.656;10.076;2023-06-14T08:18:05;6.47;;;2.03;;
37647;SDS011;23490;53.656;10.076;2023-06-14T08:20:31;3.30;;;1.63;;
37647;SDS011;23490;53.656;10.076;2023-06-14T08:22:57;2.97;;;1.75;;
37647;SDS011;23490;53.656;10.076;2023-06-14T08:25:23;4.22;;;1.77;;
37647;SDS011;23490;53.656;10.076;2023-06-14T08:27:48;5.97;;;2.10;;
37647;SDS011;23490;53.656;10.076;2023-06-14T08:30:15;5.00;;;1.90;;
37647;SDS011;23490;53.656;10.076;2023-06-14T08:32:42;5.97;;;2.20;;
37647;SDS011;23490;53.656;10.076;2023-06-14T08:35:07;5.18;;;1.58;;
37647;SDS011;23490;53.656;10.076;2023-06-14T08:37:33;2.88;;;1.65;;
37647;SDS011;23490;53.656;10.076;2023-06-14T08:40:04;5.38;;;1.98;;
37647;SDS011;23490;53.656;10.076;2023-06-14T08:42:32;3.70;;;1.88;;
37647;SDS011;23490;53.656;10.076;2023-06-14T08:44:58;2.58;;;1.63;;
37647;SDS011;23490;53.656;10.076;2023-06-14T08:47:25;3.20;;;1.70;;
37647;SDS011;23490;53.656;10.076;2023-06-14T08:49:51;3.33;;;1.73;;
37647;SDS011;23490;53.656;10.076;2023-06-14T08:52:20;5.13;;;1.90;;
37647;SDS011;23490;53.656;10.076;2023-06-14T08:54:46;5.65;;;1.83;;
37647;SDS011;23490;53.656;10.076;2023-06-14T08:57:13;3.50;;;1.85;;
37647;SDS011;23490;53.656;10.076;2023-06-14T08:59:40;4.97;;;1.80;;
37647;SDS011;23490;53.656;10.076;2023-06-14T09:02:14;3.75;;;1.77;;
37647;SDS011;23490;53.656;10.076;2023-06-14T09:04:43;2.97;;;1.92;;
37647;SDS011;23490;53.656;10.076;2023-06-14T09:07:09;7.55;;;2.47;;
37647;SDS011;23490;53.656;10.076;2023-06-14T09:09:38;4.70;;;1.77;;
37647;SDS011;23490;53.656;10.076;2023-06-14T09:12:15;4.03;;;2.08;;
37647;SDS011;23490;53.656;10.076;2023-06-14T09:14:41;5.00;;;1.83;;
37647;SDS011;23490;53.656;10.076;2023-06-14T09:17:07;5.50;;;2.15;;
37647;SDS011;23490;53.656;10.076;2023-06-14T09:19:33;3.22;;;2.03;;
37647;SDS011;23490;53.656;10.076;2023-06-14T09:21:59;5.05;;;1.77;;
37647;SDS011;23490;53.656;10.076;2023-06-14T09:24:25;4.47;;;2.33;;
37647;SDS011;23490;53.656;10.076;2023-06-14T09:26:51;4.82;;;2.08;;
37647;SDS011;23490;53.656;10.076;2023-06-14T09:29:17;4.30;;;1.95;;
37647;SDS011;23490;53.656;10.076;2023-06-14T09:31:42;4.38;;;2.08;;
37647;SDS011;23490;53.656;10.076;2023-06-14T09:34:10;5.78;;;2.60;;
37647;SDS011;23490;53.656;10.076;2023-06-14T09:36:36;5.15;;;1.80;;
37647;SDS011;23490;53.656;10.076;2023-06-14T09:39:04;4.20;;;1.90;;
37647;SDS011;23490;53.656;10.076;2023-06-14T09:41:31;4.28;;;2.03;;
37647;SDS011;23490;53.656;10.076;2023-06-14T09:44:05;5.03;;;1.83;;
37647;SDS011;23490;53.656;10.076;2023-06-14T09:46:32;5.93;;;1.83;;
37647;SDS011;23490;53.656;10.076;2023-06-14T09:48:58;6.13;;;1.92;;
37647;SDS011;23490;53.656;10.076;2023-06-14T09:51:24;4.28;;;2.10;;
37647;SDS011;23490;53.656;10.076;2023-06-14T09:53:51;3.85;;;1.90;;
37647;SDS011;23490;53.656;10.076;2023-06-14T09:56:22;4.03;;;1.98;;
37647;SDS011;23490;53.656;10.076;2023-06-14T09:58:53;3.03;;;2.03;;
37647;SDS011;23490;53.656;10.076;2023-06-14T10:03:46;6.35;;;1.98;;
37647;SDS011;23490;53.656;10.076;2023-06-14T10:06:14;4.75;;;2.38;;
37647;SDS011;23490;53.656;10.076;2023-06-14T10:08:41;4.35;;;2.05;;
37647;SDS011;23490;53.656;10.076;2023-06-14T10:11:06;3.83;;;1.98;;
37647;SDS011;23490;53.656;10.076;2023-06-14T10:13:32;5.10;;;2.03;;
37647;SDS011;23490;53.656;10.076;2023-06-14T10:18:50;3.72;;;2.10;;
37647;SDS011;23490;53.656;10.076;2023-06-14T10:24:31;3.53;;;1.83;;
37647;SDS011;23490;53.656;10.076;2023-06-14T10:26:58;6.50;;;1.95;;
37647;SDS011;23490;53.656;10.076;2023-06-14T10:29:25;2.80;;;1.63;;
37647;SDS011;23490;53.656;10.076;2023-06-14T10:31:53;5.07;;;2.10;;
37647;SDS011;23490;53.656;10.076;2023-06-14T10:34:25;3.40;;;2.00;;
37647;SDS011;23490;53.656;10.076;2023-06-14T10:37:05;3.17;;;2.00;;
37647;SDS011;23490;53.656;10.076;2023-06-14T10:39:39;6.20;;;2.20;;
37647;SDS011;23490;53.656;10.076;2023-06-14T10:42:06;8.70;;;2.20;;
37647;SDS011;23490;53.656;10.076;2023-06-14T10:44:33;4.55;;;1.65;;
37647;SDS011;23490;53.656;10.076;2023-06-14T10:46:59;4.90;;;2.30;;
37647;SDS011;23490;53.656;10.076;2023-06-14T10:52:14;5.15;;;2.20;;
37647;SDS011;23490;53.656;10.076;2023-06-14T10:57:53;5.88;;;2.00;;
37647;SDS011;23490;53.656;10.076;2023-06-14T11:00:24;15.88;;;2.47;;
37647;SDS011;23490;53.656;10.076;2023-06-14T11:05:40;5.65;;;2.58;;
37647;SDS011;23490;53.656;10.076;2023-06-14T11:10:58;5.90;;;1.98;;
37647;SDS011;23490;53.656;10.076;2023-06-14T11:13:27;6.15;;;2.53;;
37647;SDS011;23490;53.656;10.076;2023-06-14T11:15:53;4.85;;;2.63;;
37647;SDS011;23490;53.656;10.076;2023-06-14T11:18:21;8.32;;;2.00;;
37647;SDS011;23490;53.656;10.076;2023-06-14T11:20:49;2.83;;;1.67;;
37647;SDS011;23490;53.656;10.076;2023-06-14T11:23:15;3.45;;;2.00;;
37647;SDS011;23490;53.656;10.076;2023-06-14T11:25:41;4.35;;;2.30;;
37647;SDS011;23490;53.656;10.076;2023-06-14T11:28:06;3.60;;;1.95;;
37647;SDS011;23490;53.656;10.076;2023-06-14T11:30:32;6.18;;;2.00;;
37647;SDS011;23490;53.656;10.076;2023-06-14T11:32:57;3.75;;;1.95;;
37647;SDS011;23490;53.656;10.076;2023-06-14T11:35:23;3.50;;;1.80;;
37647;SDS011;23490;53.656;10.076;2023-06-14T11:37:53;4.53;;;1.73;;
37647;SDS011;23490;53.656;10.076;2023-06-14T11:40:23;3.28;;;2.00;;
37647;SDS011;23490;53.656;10.076;2023-06-14T11:42:49;4.40;;;2.15;;
37647;SDS011;23490;53.656;10.076;2023-06-14T11:45:15;4.53;;;1.95;;
37647;SDS011;23490;53.656;10.076;2023-06-14T11:47:41;6.03;;;1.92;;
37647;SDS011;23490;53.656;10.076;2023-06-14T11:50:07;3.22;;;1.83;;
37647;SDS011;23490;53.656;10.076;2023-06-14T11:52:33;5.57;;;1.80;;
37647;SDS011;23490;53.656;10.076;2023-06-14T11:54:59;3.88;;;2.20;;
37647;SDS011;23490;53.656;10.076;2023-06-14T11:57:26;3.40;;;1.80;;
37647;SDS011;23490;53.656;10.076;2023-06-14T11:59:51;3.55;;;1.77;;
37647;SDS011;23490;53.656;10.076;2023-06-14T12:02:17;4.30;;;1.77;;
37647;SDS011;23490;53.656;10.076;2023-06-14T12:04:44;3.92;;;1.85;;
37647;SDS011;23490;53.656;10.076;2023-06-14T12:07:12;5.38;;;2.08;;
37647;SDS011;23490;53.656;10.076;2023-06-14T12:09:42;8.00;;;2.28;;
37647;SDS011;23490;53.656;10.076;2023-06-14T12:12:28;3.22;;;1.65;;
37647;SDS011;23490;53.656;10.076;2023-06-14T12:14:55;3.45;;;1.75;;
37647;SDS011;23490;53.656;10.076;2023-06-14T12:17:23;3.97;;;2.00;;
37647;SDS011;23490;53.656;10.076;2023-06-14T12:19:49;6.28;;;2.03;;
37647;SDS011;23490;53.656;10.076;2023-06-14T12:22:15;3.58;;;1.88;;
37647;SDS011;23490;53.656;10.076;2023-06-14T12:24:45;5.05;;;1.67;;
37647;SDS011;23490;53.656;10.076;2023-06-14T12:27:11;4.82;;;1.58;;
37647;SDS011;23490;53.656;10.076;2023-06-14T12:29:44;4.93;;;1.95;;
37647;SDS011;23490;53.656;10.076;2023-06-14T12:34:35;4.53;;;2.13;;
37647;SDS011;23490;53.656;10.076;2023-06-14T12:37:00;5.32;;;2.38;;
37647;SDS011;23490;53.656;10.076;2023-06-14T12:39:26;4.03;;;1.98;;
37647;SDS011;23490;53.656;10.076;2023-06-14T12:41:51;4.40;;;2.13;;
37647;SDS011;23490;53.656;10.076;2023-06-14T12:44:16;4.50;;;2.10;;
37647;SDS011;23490;53.656;10.076;2023-06-14T12:46:42;5.13;;;2.00;;
37647;SDS011;23490;53.656;10.076;2023-06-14T12:49:09;3.85;;;1.90;;
37647;SDS011;23490;53.656;10.076;2023-06-14T12:51:36;2.22;;;1.75;;
37647;SDS011;23490;53.656;10.076;2023-06-14T12:54:02;6.63;;;1.98;;
37647;SDS011;23490;53.656;10.076;2023-06-14T12:56:27;5.93;;;2.00;;
37647;SDS011;23490;53.656;10.076;2023-06-14T12:58:52;3.97;;;1.60;;
37647;SDS011;23490;53.656;10.076;2023-06-14T13:01:18;3.83;;;2.10;;
37647;SDS011;23490;53.656;10.076;2023-06-14T13:03:45;4.20;;;1.75;;
37647;SDS011;23490;53.656;10.076;2023-06-14T13:06:15;3.15;;;1.67;;
37647;SDS011;23490;53.656;10.076;2023-06-14T13:08:41;4.45;;;1.83;;
37647;SDS011;23490;53.656;10.076;2023-06-14T13:11:06;6.72;;;2.10;;
37647;SDS011;23490;53.656;10.076;2023-06-14T13:13:31;5.90;;;1.90;;
37647;SDS011;23490;53.656;10.076;2023-06-14T13:15:57;3.13;;;1.80;;
37647;SDS011;23490;53.656;10.076;2023-06-14T13:18:22;4.22;;;2.17;;
37647;SDS011;23490;53.656;10.076;2023-06-14T13:20:47;4.32;;;1.63;;
37647;SDS011;23490;53.656;10.076;2023-06-14T13:23:13;4.00;;;1.85;;
37647;SDS011;23490;53.656;10.076;2023-06-14T13:25:38;4.88;;;2.00;;
37647;SDS011;23490;53.656;10.076;2023-06-14T13:28:04;5.20;;;1.67;;
37647;SDS011;23490;53.656;10.076;2023-06-14T13:30:30;2.60;;;1.80;;
37647;SDS011;23490;53.656;10.076;2023-06-14T13:32:57;2.70;;;1.95;;
37647;SDS011;23490;53.656;10.076;2023-06-14T13:35:22;4.25;;;1.85;;
37647;SDS011;23490;53.656;10.076;2023-06-14T13:37:48;5.60;;;1.73;;
37647;SDS011;23490;53.656;10.076;2023-06-14T13:40:14;3.75;;;1.80;;
37647;SDS011;23490;53.656;10.076;2023-06-14T13:42:39;4.88;;;2.00;;
37647;SDS011;23490;53.656;10.076;2023-06-14T13:45:05;5.28;;;1.80;;
37647;SDS011;23490;53.656;10.076;2023-06-14T13:47:32;3.13;;;1.98;;
37647;SDS011;23490;53.656;10.076;2023-06-14T13:49:57;2.78;;;1.50;;
37647;SDS011;23490;53.656;10.076;2023-06-14T13:52:23;3.72;;;1.70;;
37647;SDS011;23490;53.656;10.076;2023-06-14T13:54:49;6.10;;;1.90;;
37647;SDS011;23490;53.656;10.076;2023-06-14T13:57:15;5.18;;;1.90;;
37647;SDS011;23490;53.656;10.076;2023-06-14T13:59:41;3.65;;;1.75;;
37647;SDS011;23490;53.656;10.076;2023-06-14T14:02:09;5.13;;;1.90;;
37647;SDS011;23490;53.656;10.076;2023-06-14T14:04:34;3.53;;;2.10;;
37647;SDS011;23490;53.656;10.076;2023-06-14T14:07:01;2.63;;;1.77;;
37647;SDS011;23490;53.656;10.076;2023-06-14T14:09:27;3.22;;;1.73;;
37647;SDS011;23490;53.656;10.076;2023-06-14T14:11:52;5.50;;;2.42;;
37647;SDS011;23490;53.656;10.076;2023-06-14T14:14:17;4.55;;;1.92;;
37647;SDS011;23490;53.656;10.076;2023-06-14T14:16:43;3.53;;;1.80;;
37647;SDS011;23490;53.656;10.076;2023-06-14T14:19:08;4.20;;;2.08;;
37647;SDS011;23490;53.656;10.076;2023-06-14T14:21:33;6.88;;;1.70;;
37647;SDS011;23490;53.656;10.076;2023-06-14T14:23:59;8.85;;;2.17;;
37647;SDS011;23490;53.656;10.076;2023-06-14T14:26:25;5.93;;;1.80;;
37647;SDS011;23490;53.656;10.076;2023-06-14T14:28:51;4.13;;;1.92;;
37647;SDS011;23490;53.656;10.076;2023-06-14T14:31:16;3.38;;;1.77;;
37647;SDS011;23490;53.656;10.076;2023-06-14T14:33:42;4.28;;;2.20;;
37647;SDS011;23490;53.656;10.076;2023-06-14T14:36:07;4.35;;;1.85;;
37647;SDS011;23490;53.656;10.076;2023-06-14T14:38:33;4.15;;;1.90;;
37647;SDS011;23490;53.656;10.076;2023-06-14T14:40:58;5.25;;;1.90;;
37647;SDS011;23490;53.656;10.076;2023-06-14T14:43:23;3.95;;;1.88;;
37647;SDS011;23490;53.656;10.076;2023-06-14T14:45:49;3.33;;;1.80;;
37647;SDS011;23490;53.656;10.076;2023-06-14T14:48:14;3.15;;;1.52;;
37647;SDS011;23490;53.656;10.076;2023-06-14T14:50:39;5.25;;;1.63;;
37647;SDS011;23490;53.656;10.076;2023-06-14T14:53:05;5.72;;;2.00;;
37647;SDS011;23490;53.656;10.076;2023-06-14T14:55:31;3.83;;;1.70;;